Time;durP1;ratioP1;P1;durP2;ratioP2;P2;SDS_P1;SDS_P2;PMS_P1;PMS_P2;Temp;Humidity;BMP_temperature;BMP_pressure;BME280_temperature;BME280_humidity;BME280_pressure;Samples;Min_cycle;Max_cycle;Signal;HPM_P1;HPM_P2
2022/10/06 00:00:38;;;;;;;9.70;6.10;;;;;;;11.61;81.09;100836.04;86532;1288;94334;-59
2022/10/06 00:03:07;;;;;;;9.80;6.20;;;;;;;11.58;81.08;100835.84;86569;1283;81319;-64
2022/10/06 00:05:16;;;;;;;7.80;6.00;;;;;;;11.52;81.15;100833.20;86528;1283;82649;-64
2022/10/06 00:07:28;;;;;;;9.10;5.90;;;;;;;11.51;81.19;100830.84;86551;1285;99729;-61
2022/10/06 00:09:37;;;;;;;12.20;5.80;;;;;;;11.50;81.21;100828.59;86574;1283;88928;-60
2022/10/06 00:11:46;;;;;;;7.60;5.80;;;;;;;11.46;81.31;100826.69;86575;1288;93692;-62
2022/10/06 00:13:57;;;;;;;9.70;6.00;;;;;;;11.44;81.30;100827.80;86565;1285;80897;-61
2022/10/06 00:16:11;;;;;;;8.80;5.60;;;;;;;11.45;81.32;100824.36;86583;1288;82370;-61
2022/10/06 00:18:19;;;;;;;8.10;5.40;;;;;;;11.46;81.33;100825.06;86598;1288;98075;-63
2022/10/06 00:20:29;;;;;;;7.70;5.90;;;;;;;11.43;81.34;100823.98;86472;1292;88817;-64
2022/10/06 00:22:40;;;;;;;8.50;6.20;;;;;;;11.41;81.41;100821.95;86564;1284;96032;-62
2022/10/06 00:24:49;;;;;;;7.60;5.50;;;;;;;11.41;81.56;100826.37;86559;1285;82904;-61
2022/10/06 00:26:58;;;;;;;11.00;6.00;;;;;;;11.43;81.53;100822.20;86583;1285;82286;-63
2022/10/06 00:29:07;;;;;;;8.10;5.50;;;;;;;11.41;81.50;100825.66;86555;1284;98108;-59
2022/10/06 00:31:18;;;;;;;9.30;6.10;;;;;;;11.37;81.62;100825.97;86548;1291;89002;-59
2022/10/06 00:33:27;;;;;;;8.10;5.40;;;;;;;11.36;81.67;100825.27;86507;1284;95891;-60
2022/10/06 00:35:36;;;;;;;8.40;5.00;;;;;;;11.36;81.71;100829.16;86545;1288;79018;-60
2022/10/06 00:37:45;;;;;;;8.60;5.70;;;;;;;11.38;81.65;100825.31;86509;1283;82185;-59
2022/10/06 00:39:53;;;;;;;7.50;5.50;;;;;;;11.37;81.71;100826.68;86546;1291;99064;-58
2022/10/06 00:42:02;;;;;;;8.70;6.00;;;;;;;11.36;81.70;100822.02;86533;1285;87261;-56
2022/10/06 00:44:11;;;;;;;8.00;5.70;;;;;;;11.37;81.70;100820.93;86567;1281;95150;-58
2022/10/06 00:46:28;;;;;;;7.10;5.10;;;;;;;11.35;81.69;100821.44;86528;1288;81619;-60
2022/10/06 00:48:38;;;;;;;8.80;5.60;;;;;;;11.32;81.79;100826.73;86547;1289;81676;-63
2022/10/06 00:50:48;;;;;;;9.20;5.40;;;;;;;11.34;81.93;100820.47;86500;1285;98519;-63
2022/10/06 00:52:57;;;;;;;7.80;5.40;;;;;;;11.36;81.91;100820.88;86546;1285;85306;-58
2022/10/06 00:55:08;;;;;;;7.00;4.80;;;;;;;11.39;82.02;100818.02;86545;1285;95551;-60
2022/10/06 00:57:17;;;;;;;6.80;5.10;;;;;;;11.37;81.96;100819.10;86546;1285;81025;-60
2022/10/06 00:59:26;;;;;;;7.70;4.90;;;;;;;11.38;81.99;100821.53;86579;1285;83063;-60
2022/10/06 01:01:36;;;;;;;8.20;6.20;;;;;;;11.35;82.19;100817.40;86565;1284;97174;-60
2022/10/06 01:03:50;;;;;;;9.80;5.10;;;;;;;11.38;82.20;100817.21;86540;1282;88692;-60
2022/10/06 01:06:02;;;;;;;7.10;4.70;;;;;;;11.39;82.24;100815.88;86563;1284;95445;-61
2022/10/06 01:08:12;;;;;;;8.50;4.80;;;;;;;11.37;82.20;100816.55;86583;1292;81335;-60
2022/10/06 01:10:22;;;;;;;6.40;4.30;;;;;;;11.36;82.28;100812.73;86566;1283;81422;-60
2022/10/06 01:12:33;;;;;;;10.40;5.30;;;;;;;11.36;82.29;100808.60;86559;1288;98622;-62
2022/10/06 01:14:43;;;;;;;7.50;4.80;;;;;;;11.38;82.33;100806.63;86549;1285;85753;-60
2022/10/06 01:16:59;;;;;;;10.60;5.00;;;;;;;11.38;82.34;100807.16;86548;1289;93828;-58
2022/10/06 01:19:18;;;;;;;8.00;5.90;;;;;;;11.39;82.32;100803.81;86515;1282;81040;-63
2022/10/06 01:21:34;;;;;;;7.50;5.50;;;;;;;11.36;82.40;100807.15;86535;1285;83054;-63
2022/10/06 01:23:44;;;;;;;8.60;5.50;;;;;;;11.36;82.38;100803.02;86502;1282;98018;-62
2022/10/06 01:25:53;;;;;;;7.40;4.30;;;;;;;11.39;82.43;100801.58;86536;1285;88626;-62
2022/10/06 01:28:04;;;;;;;6.90;4.50;;;;;;;11.39;82.40;100801.23;86504;1285;94063;-62
2022/10/06 01:30:17;;;;;;;6.30;4.20;;;;;;;11.38;82.44;100802.46;86539;1291;81154;-61
2022/10/06 01:32:34;;;;;;;6.20;4.70;;;;;;;11.36;82.45;100799.12;86553;1282;82208;-61
2022/10/06 01:34:43;;;;;;;6.30;4.40;;;;;;;11.34;82.46;100799.67;86530;1283;97800;-59
2022/10/06 01:36:54;;;;;;;7.70;4.50;;;;;;;11.35;82.57;100796.30;86505;1288;89658;-59
2022/10/06 01:39:03;;;;;;;8.60;4.80;;;;;;;11.38;82.58;100796.89;86421;1292;94285;-58
2022/10/06 01:41:12;;;;;;;8.20;4.70;;;;;;;11.38;82.52;100797.92;86532;1285;80523;-58
2022/10/06 01:43:23;;;;;;;8.90;4.50;;;;;;;11.38;82.52;100793.23;86551;1291;80581;-63
2022/10/06 01:45:32;;;;;;;6.30;4.80;;;;;;;11.37;82.44;100797.26;86565;1285;98802;-63
2022/10/06 01:47:40;;;;;;;8.70;5.10;;;;;;;11.35;82.63;100797.39;86549;1285;89110;-59
2022/10/06 01:49:51;;;;;;;6.80;4.50;;;;;;;11.35;82.69;100794.21;86545;1288;94781;-60
2022/10/06 01:52:01;;;;;;;7.80;4.50;;;;;;;11.35;82.65;100795.39;86578;1285;81934;-59
2022/10/06 01:54:09;;;;;;;6.90;4.30;;;;;;;11.34;82.85;100794.96;86593;1288;81298;-63
2022/10/06 01:56:19;;;;;;;9.40;5.00;;;;;;;11.35;82.80;100790.55;86562;1280;97808;-63
2022/10/06 01:58:28;;;;;;;6.00;4.50;;;;;;;11.35;82.71;100794.16;86562;1290;88331;-60
2022/10/06 02:00:41;;;;;;;7.00;4.50;;;;;;;11.33;82.75;100792.41;86576;1283;95053;-58
2022/10/06 02:02:51;;;;;;;8.70;4.90;;;;;;;11.32;82.75;100791.80;86440;1291;80389;-60
2022/10/06 02:05:00;;;;;;;7.10;4.40;;;;;;;11.32;82.89;100792.16;86582;1282;82654;-59
2022/10/06 02:07:09;;;;;;;7.20;4.30;;;;;;;11.34;82.83;100791.89;86544;1282;99744;-60
2022/10/06 02:09:18;;;;;;;5.70;4.40;;;;;;;11.36;82.87;100790.28;86529;1285;89384;-59
2022/10/06 02:11:27;;;;;;;8.80;5.20;;;;;;;11.39;82.95;100789.88;86557;1292;94840;-59
2022/10/06 02:13:39;;;;;;;6.60;4.20;;;;;;;11.42;82.99;100793.67;86521;1288;79453;-59
2022/10/06 02:15:49;;;;;;;7.30;4.10;;;;;;;11.40;82.97;100795.30;86576;1291;81448;-60
2022/10/06 02:17:59;;;;;;;8.80;4.60;;;;;;;11.39;83.03;100794.50;86553;1285;98253;-63
2022/10/06 02:20:09;;;;;;;7.60;3.90;;;;;;;11.42;82.97;100797.46;86552;1291;88497;-63
2022/10/06 02:22:18;;;;;;;7.50;4.50;;;;;;;11.40;83.14;100794.23;86520;1288;95460;-63
2022/10/06 02:24:27;;;;;;;6.80;4.60;;;;;;;11.43;83.08;100796.29;86507;1291;81357;-61
2022/10/06 02:26:36;;;;;;;6.70;4.90;;;;;;;11.40;83.08;100798.80;86518;1288;82272;-60
2022/10/06 02:28:48;;;;;;;7.70;5.00;;;;;;;11.42;83.16;100801.04;86575;1283;99296;-58
2022/10/06 02:31:02;;;;;;;8.90;4.20;;;;;;;11.41;83.09;100802.11;86541;1291;87974;-59
2022/10/06 02:33:10;;;;;;;7.30;3.80;;;;;;;11.41;83.04;100803.05;86570;1288;94134;-60
2022/10/06 02:35:20;;;;;;;5.00;4.30;;;;;;;11.37;83.04;100812.24;86578;1285;80007;-60
2022/10/06 02:37:29;;;;;;;9.10;4.20;;;;;;;11.35;83.04;100808.42;86601;1291;82175;-60
2022/10/06 02:39:38;;;;;;;11.10;4.50;;;;;;;11.34;83.00;100809.85;86515;1285;98609;-62
2022/10/06 02:41:47;;;;;;;9.70;4.50;;;;;;;11.30;82.99;100806.64;86579;1283;88757;-62
2022/10/06 02:43:56;;;;;;;7.00;4.90;;;;;;;11.25;83.05;100809.42;86573;1285;95099;-63
2022/10/06 02:46:07;;;;;;;6.60;3.90;;;;;;;11.24;83.08;100811.63;86567;1291;80238;-64
2022/10/06 02:48:16;;;;;;;6.80;4.40;;;;;;;11.22;83.09;100809.59;86603;1285;80488;-63
2022/10/06 02:50:24;;;;;;;6.10;4.50;;;;;;;11.18;83.12;100806.07;86590;1285;97484;-64
2022/10/06 02:52:41;;;;;;;11.20;4.60;;;;;;;11.16;83.20;100806.33;86537;1285;86721;-62
2022/10/06 02:54:51;;;;;;;6.10;4.30;;;;;;;11.18;83.29;100809.92;86537;1291;95405;-62
2022/10/06 02:57:00;;;;;;;9.70;4.40;;;;;;;11.17;83.26;100807.14;86450;1282;80720;-62
2022/10/06 02:59:09;;;;;;;5.90;4.40;;;;;;;11.17;83.30;100808.42;86497;1288;81215;-63
2022/10/06 03:01:22;;;;;;;6.80;4.30;;;;;;;11.17;83.35;100811.81;86480;1284;96975;-61
2022/10/06 03:03:34;;;;;;;8.10;4.40;;;;;;;11.15;83.41;100806.97;86552;1288;87380;-63
2022/10/06 03:05:43;;;;;;;7.70;4.20;;;;;;;11.15;83.39;100814.80;86540;1288;94610;-63
2022/10/06 03:07:52;;;;;;;5.80;4.30;;;;;;;11.13;83.42;100818.80;86526;1291;81944;-58
2022/10/06 03:10:00;;;;;;;5.60;4.40;;;;;;;11.10;83.41;100818.22;86539;1285;81145;-59
2022/10/06 03:12:09;;;;;;;8.00;5.00;;;;;;;11.10;83.40;100818.61;86408;1276;99654;-59
2022/10/06 03:14:18;;;;;;;7.30;4.90;;;;;;;11.07;83.44;100822.15;86533;1291;88951;-62
2022/10/06 03:16:30;;;;;;;7.00;4.60;;;;;;;11.03;83.53;100821.95;86520;1291;94071;-55
2022/10/06 03:18:39;;;;;;;8.30;5.50;;;;;;;11.02;83.60;100828.02;86591;1285;80886;-62
2022/10/06 03:20:50;;;;;;;6.50;4.70;;;;;;;11.01;83.65;100822.22;86567;1288;82187;-62
2022/10/06 03:22:59;;;;;;;7.00;4.20;;;;;;;11.02;83.70;100826.07;86573;1291;97224;-60
2022/10/06 03:25:10;;;;;;;6.10;4.30;;;;;;;10.99;83.65;100830.20;86556;1275;89145;-59
2022/10/06 03:27:19;;;;;;;8.10;4.70;;;;;;;10.96;83.63;100827.36;86579;1292;92896;-60
2022/10/06 03:29:33;;;;;;;8.00;4.60;;;;;;;10.94;83.66;100826.83;86322;1289;365119;-59
2022/10/06 03:31:43;;;;;;;8.50;4.50;;;;;;;10.93;83.70;100826.64;86594;1288;81152;-58
2022/10/06 03:33:53;;;;;;;6.60;4.40;;;;;;;10.92;83.74;100833.54;86574;1283;99738;-64
2022/10/06 03:36:07;;;;;;;7.40;4.60;;;;;;;10.91;83.80;100834.05;86552;1288;87539;-63
2022/10/06 03:38:16;;;;;;;5.60;4.30;;;;;;;10.95;83.87;100832.00;86613;1285;94749;-60
2022/10/06 03:40:25;;;;;;;6.10;4.20;;;;;;;10.92;83.83;100834.08;86509;1291;81345;-60
2022/10/06 03:42:35;;;;;;;8.50;4.60;;;;;;;10.88;83.73;100831.00;86549;1289;82336;-59
2022/10/06 03:44:43;;;;;;;7.70;4.40;;;;;;;10.85;83.78;100833.02;86563;1282;100042;-59
2022/10/06 03:46:52;;;;;;;6.10;4.50;;;;;;;10.80;83.88;100833.16;86533;1291;89072;-59
2022/10/06 03:49:02;;;;;;;6.80;4.80;;;;;;;10.79;84.01;100836.17;86537;1285;95558;-59
2022/10/06 03:51:17;;;;;;;5.30;4.40;;;;;;;10.79;84.03;100838.91;86539;1275;81926;-59
2022/10/06 03:53:28;;;;;;;6.10;4.00;;;;;;;10.75;84.04;100841.34;86548;1285;82199;-59
2022/10/06 03:55:37;;;;;;;6.70;4.40;;;;;;;10.73;84.08;100837.88;86552;1283;98701;-59
2022/10/06 03:57:45;;;;;;;5.90;4.30;;;;;;;10.70;84.09;100838.77;86552;1288;88390;-63
2022/10/06 03:59:58;;;;;;;7.00;4.40;;;;;;;10.71;84.23;100840.42;86548;1288;94226;-63
2022/10/06 04:02:10;;;;;;;6.00;4.30;;;;;;;10.70;84.21;100843.06;86540;1285;81082;-63
2022/10/06 04:04:18;;;;;;;5.00;4.30;;;;;;;10.69;84.29;100846.95;86565;1291;81875;-63
2022/10/06 04:06:31;;;;;;;7.40;4.20;;;;;;;10.68;84.35;100848.64;86562;1288;98377;-62
2022/10/06 04:08:43;;;;;;;6.00;4.30;;;;;;;10.67;84.42;100847.39;86551;1285;88894;-61
2022/10/06 04:10:55;;;;;;;6.30;4.10;;;;;;;10.66;84.45;100843.90;86544;1288;93101;-59
2022/10/06 04:13:04;;;;;;;6.30;4.20;;;;;;;10.66;84.52;100844.16;86483;1284;81001;-61
2022/10/06 04:15:14;;;;;;;6.40;4.50;;;;;;;10.72;84.55;100851.32;86595;1288;82207;-62
2022/10/06 04:17:23;;;;;;;5.40;4.50;;;;;;;10.70;84.62;100850.05;86543;1291;98838;-62
2022/10/06 04:19:34;;;;;;;7.50;4.90;;;;;;;10.70;84.60;100850.11;86542;1292;86780;-60
2022/10/06 04:21:45;;;;;;;8.90;4.50;;;;;;;10.70;84.64;100855.66;86591;1285;94857;-60
2022/10/06 04:23:56;;;;;;;6.00;4.70;;;;;;;10.71;84.61;100856.88;86563;1285;81898;-59
2022/10/06 04:26:09;;;;;;;5.60;4.50;;;;;;;10.69;84.64;100856.11;86539;1291;82267;-60
2022/10/06 04:28:17;;;;;;;6.70;4.20;;;;;;;10.69;84.71;100858.47;86548;1285;99291;-59
2022/10/06 04:30:27;;;;;;;7.60;4.50;;;;;;;10.71;84.80;100856.05;86504;1283;88301;-58
2022/10/06 04:32:38;;;;;;;6.60;4.70;;;;;;;10.69;84.74;100859.88;86550;1283;95172;-61
2022/10/06 04:34:47;;;;;;;9.20;4.70;;;;;;;10.67;84.89;100863.71;86544;1289;82278;-60
2022/10/06 04:36:56;;;;;;;7.00;4.40;;;;;;;10.69;84.97;100869.61;86526;1285;81990;-60
2022/10/06 04:39:07;;;;;;;8.30;4.30;;;;;;;10.73;84.98;100866.30;86530;1291;98823;-63
2022/10/06 04:41:19;;;;;;;6.60;4.30;;;;;;;10.68;84.89;100875.15;86499;1285;88477;-64
2022/10/06 04:43:28;;;;;;;5.60;4.60;;;;;;;10.67;84.87;100874.59;86527;1291;95050;-61
2022/10/06 04:45:39;;;;;;;7.10;4.90;;;;;;;10.64;84.95;100878.36;86552;1291;80549;-61
2022/10/06 04:47:50;;;;;;;7.90;4.40;;;;;;;10.62;84.94;100880.90;86451;1286;84794;-63
2022/10/06 04:49:58;;;;;;;6.00;4.20;;;;;;;10.58;84.99;100883.89;86560;1285;99606;-63
2022/10/06 04:52:07;;;;;;;6.30;5.10;;;;;;;10.58;85.05;100885.14;86539;1285;88898;-63
2022/10/06 04:54:17;;;;;;;5.80;4.50;;;;;;;10.61;85.02;100888.91;86553;1288;95103;-61
2022/10/06 04:56:29;;;;;;;8.30;4.70;;;;;;;10.62;85.04;100885.52;86602;1292;80922;-61
2022/10/06 04:58:41;;;;;;;5.00;4.50;;;;;;;10.62;85.08;100890.42;86636;1291;81562;-59
2022/10/06 05:00:51;;;;;;;5.30;4.20;;;;;;;10.60;85.02;100893.67;86608;1287;99659;-60
2022/10/06 05:03:02;;;;;;;5.60;3.90;;;;;;;10.60;85.08;100896.77;86611;1291;88923;-63
2022/10/06 05:05:12;;;;;;;5.50;4.00;;;;;;;10.62;85.18;100894.41;86542;1285;93342;-63
2022/10/06 05:07:21;;;;;;;7.90;4.30;;;;;;;10.67;85.21;100903.23;86606;1291;81541;-63
2022/10/06 05:09:33;;;;;;;7.70;4.50;;;;;;;10.72;85.25;100908.20;86577;1288;80744;-61
2022/10/06 05:11:43;;;;;;;7.20;4.70;;;;;;;10.78;85.26;100911.14;86558;1285;98303;-62
2022/10/06 05:13:54;;;;;;;6.80;4.50;;;;;;;10.79;85.27;100912.45;86579;1291;86330;-61
2022/10/06 05:16:04;;;;;;;8.10;4.00;;;;;;;10.83;85.22;100912.09;86523;1291;95982;-61
2022/10/06 05:18:13;;;;;;;5.70;4.50;;;;;;;10.88;85.26;100918.81;86521;1292;80282;-61
2022/10/06 05:20:22;;;;;;;6.80;4.80;;;;;;;10.90;85.20;100917.25;86451;1291;81783;-61
2022/10/06 05:22:35;;;;;;;6.80;4.50;;;;;;;10.96;85.31;100921.44;86525;1288;97465;-59
2022/10/06 05:24:49;;;;;;;7.30;4.50;;;;;;;11.03;85.36;100915.58;86551;1288;87358;-57
2022/10/06 05:27:01;;;;;;;6.20;4.70;;;;;;;11.05;85.50;100917.58;86498;1292;93253;-63
2022/10/06 05:29:12;;;;;;;7.40;4.70;;;;;;;11.17;85.62;100918.48;86587;1291;82117;-62
2022/10/06 05:31:25;;;;;;;7.70;4.40;;;;;;;11.38;85.37;100917.26;86574;1288;81782;-63
2022/10/06 05:33:38;;;;;;;11.10;5.80;;;;;;;11.54;85.20;100917.33;86596;1291;98221;-62
2022/10/06 05:35:57;;;;;;;7.10;4.40;;;;;;;11.65;85.05;100921.66;86590;1285;86845;-61
2022/10/06 05:38:08;;;;;;;8.00;4.60;;;;;;;11.74;85.09;100924.64;86588;1288;95094;-61
2022/10/06 05:40:17;;;;;;;7.00;4.50;;;;;;;11.92;85.02;100927.77;86578;1293;81549;-60
2022/10/06 05:42:26;;;;;;;9.60;4.80;;;;;;;12.48;84.84;100931.16;86613;1291;81592;-59
2022/10/06 05:44:39;;;;;;;11.30;4.80;;;;;;;13.70;85.07;100927.04;86547;1285;97898;-60
2022/10/06 05:46:51;;;;;;;7.70;4.30;;;;;;;15.01;84.09;100924.16;86564;1284;87752;-60
2022/10/06 05:49:02;;;;;;;5.90;4.80;;;;;;;15.10;82.45;100928.55;86571;1285;94404;-63
2022/10/06 05:51:13;;;;;;;10.90;4.90;;;;;;;14.76;82.10;100932.21;86535;1288;80374;-61
2022/10/06 05:53:22;;;;;;;7.70;5.10;;;;;;;14.53;81.94;100942.44;86582;1283;82418;-60
2022/10/06 05:55:32;;;;;;;6.30;5.30;;;;;;;14.61;82.37;100947.76;86524;1285;98828;-62
2022/10/06 05:57:41;;;;;;;7.40;4.40;;;;;;;14.91;82.36;100949.64;86549;1285;88797;-62
2022/10/06 05:59:52;;;;;;;6.30;4.70;;;;;;;15.12;81.83;100956.31;86544;1291;95735;-59
2022/10/06 06:02:04;;;;;;;7.80;4.80;;;;;;;15.03;80.95;100958.50;86560;1288;80048;-59
2022/10/06 06:04:15;;;;;;;9.80;5.10;;;;;;;14.80;80.64;100960.02;86556;1287;82748;-61
2022/10/06 06:06:27;;;;;;;6.90;4.90;;;;;;;14.56;80.28;100963.58;86534;1285;99410;-61
2022/10/06 06:08:36;;;;;;;7.30;5.10;;;;;;;14.39;80.25;100966.54;86576;1283;88545;-61
2022/10/06 06:10:46;;;;;;;7.80;4.90;;;;;;;14.29;80.35;100969.88;86580;1291;94425;-56
2022/10/06 06:12:54;;;;;;;6.70;4.90;;;;;;;14.13;80.45;100973.67;86584;1285;81668;-62
2022/10/06 06:17:32;;;;;;;7.60;5.10;;;;;;;13.97;80.24;100980.48;86579;1285;98302;-60
2022/10/06 06:19:41;;;;;;;8.10;4.90;;;;;;;13.95;80.29;100985.35;86563;1285;88374;-58
2022/10/06 06:21:51;;;;;;;7.30;5.60;;;;;;;13.95;80.31;100989.35;86544;1285;94636;-58
2022/10/06 06:24:02;;;;;;;5.70;4.30;;;;;;;13.98;80.29;100995.23;86566;1288;81017;-60
2022/10/06 06:26:14;;;;;;;7.60;5.00;;;;;;;14.03;80.45;101003.42;86521;1288;82592;-61
2022/10/06 06:28:24;;;;;;;7.70;5.30;;;;;;;14.25;80.52;101010.00;86542;1291;100577;-61
2022/10/06 06:30:34;;;;;;;8.50;4.80;;;;;;;14.55;80.55;101013.95;86542;1285;88190;-62
2022/10/06 06:32:43;;;;;;;7.10;5.00;;;;;;;14.63;80.36;101013.02;86514;1285;95539;-61
2022/10/06 06:34:52;;;;;;;12.00;5.20;;;;;;;14.73;80.08;101015.51;86570;1288;78775;-62
2022/10/06 06:37:02;;;;;;;8.60;5.40;;;;;;;14.90;80.05;101017.80;86569;1288;82794;-60
2022/10/06 06:39:14;;;;;;;7.00;4.70;;;;;;;15.12;79.98;101024.23;86542;1291;99849;-62
2022/10/06 06:41:25;;;;;;;7.60;5.20;;;;;;;15.14;79.84;101024.55;86522;1276;87352;-59
2022/10/06 06:43:38;;;;;;;8.40;4.70;;;;;;;15.01;79.60;101032.25;86546;1289;92464;-63
2022/10/06 06:45:47;;;;;;;7.10;5.50;;;;;;;14.91;79.46;101030.33;86561;1285;79439;-62
2022/10/06 06:48:01;;;;;;;6.00;4.80;;;;;;;14.85;79.38;101037.95;86542;1285;81744;-62
2022/10/06 06:50:12;;;;;;;;;;;;;;;14.74;79.49;101041.11;86565;1291;100135;-60
2022/10/06 06:52:22;;;;;;;6.40;4.50;;;;;;;14.67;79.40;101047.83;86558;1291;89059;-59
2022/10/06 06:54:31;;;;;;;6.80;4.70;;;;;;;14.64;79.52;101057.13;86569;1285;93484;-62
2022/10/06 06:56:41;;;;;;;8.20;4.70;;;;;;;14.63;79.43;101053.61;86562;1285;82302;-62
2022/10/06 06:58:50;;;;;;;6.90;4.80;;;;;;;14.57;79.61;101053.70;86588;1292;83625;-61
2022/10/06 07:01:12;;;;;;;6.30;4.50;;;;;;;14.55;79.57;101054.31;86601;1289;99110;-60
2022/10/06 07:03:23;;;;;;;6.00;4.60;;;;;;;14.57;79.59;101059.98;86588;1285;89165;-61
2022/10/06 07:05:32;;;;;;;6.50;4.70;;;;;;;14.59;79.71;101065.51;86571;1285;94607;-60
2022/10/06 07:07:42;;;;;;;11.70;5.10;;;;;;;14.64;79.61;101069.47;86554;1289;79636;-58
2022/10/06 07:09:51;;;;;;;8.20;5.00;;;;;;;14.70;79.60;101074.06;86566;1288;81789;-59
2022/10/06 07:12:00;;;;;;;6.90;5.00;;;;;;;14.70;79.58;101077.30;86529;1285;99001;-59
2022/10/06 07:14:11;;;;;;;8.00;4.40;;;;;;;14.76;79.61;101076.37;86573;1288;88480;-62
2022/10/06 07:26:11;;;;;;;6.60;4.80;;;;;;;14.88;79.66;101071.17;86525;1285;86568;-57
2022/10/06 07:28:20;;;;;;;8.50;4.70;;;;;;;14.94;79.71;101077.85;86537;1291;95386;-61
2022/10/06 07:30:30;;;;;;;5.50;4.50;;;;;;;15.00;79.74;101079.17;86517;1292;82492;-62
2022/10/06 07:32:39;;;;;;;8.10;4.70;;;;;;;15.05;79.64;101081.92;86582;1284;82965;-62
2022/10/06 07:34:48;;;;;;;6.70;4.50;;;;;;;15.08;79.58;101083.24;86520;1291;96207;-61
2022/10/06 07:36:56;;;;;;;7.20;4.40;;;;;;;15.08;79.62;101085.55;86557;1291;88791;-62
2022/10/06 07:39:06;;;;;;;7.70;4.80;;;;;;;15.11;79.34;101090.37;86579;1285;95418;-62
2022/10/06 07:41:14;;;;;;;8.40;4.50;;;;;;;15.11;79.31;101088.20;86553;1283;81396;-61
2022/10/06 07:43:24;;;;;;;8.10;4.90;;;;;;;15.10;79.23;101090.58;86606;1291;83252;-59
2022/10/06 07:45:39;;;;;;;7.70;5.10;;;;;;;15.09;79.25;101088.65;86580;1285;98828;-60
2022/10/06 07:47:48;;;;;;;8.30;5.20;;;;;;;15.11;79.20;101088.31;86591;1288;88818;-62
2022/10/06 07:49:57;;;;;;;8.40;5.10;;;;;;;15.10;79.27;101083.13;86571;1292;95065;-62
2022/10/06 07:52:07;;;;;;;6.40;4.60;;;;;;;15.14;79.20;101087.44;86534;1291;82609;-64
2022/10/06 07:54:15;;;;;;;9.90;5.40;;;;;;;15.18;79.24;101090.23;86577;1291;82325;-59
2022/10/06 07:56:25;;;;;;;6.10;4.40;;;;;;;15.29;79.42;101093.55;86536;1283;99471;-60
2022/10/06 07:58:36;;;;;;;7.00;4.40;;;;;;;15.41;79.37;101094.27;86525;1285;87236;-59
2022/10/06 08:00:47;;;;;;;7.70;5.20;;;;;;;15.54;79.29;101102.23;86523;1285;94824;-59
2022/10/06 08:02:58;;;;;;;10.60;5.40;;;;;;;15.68;79.31;101101.52;86557;1289;81598;-59
2022/10/06 08:05:09;;;;;;;5.40;4.10;;;;;;;15.82;79.31;101105.20;86552;1288;81831;-59
2022/10/06 08:07:20;;;;;;;8.40;4.80;;;;;;;15.92;79.29;101106.77;86542;1283;98811;-59
2022/10/06 08:09:30;;;;;;;9.10;4.80;;;;;;;16.02;79.13;101102.39;86555;1288;85971;-62
2022/10/06 08:11:42;;;;;;;8.20;4.60;;;;;;;16.17;78.93;101102.65;86524;1289;95552;-62
2022/10/06 08:13:52;;;;;;;6.70;4.70;;;;;;;16.38;78.99;101104.04;86548;1291;80416;-60
2022/10/06 08:16:08;;;;;;;6.30;4.80;;;;;;;16.71;78.69;101105.23;86510;1285;82901;-60
2022/10/06 08:18:17;;;;;;;8.10;4.10;;;;;;;17.06;78.78;101113.48;86544;1289;99365;-62
2022/10/06 08:20:26;;;;;;;8.00;4.50;;;;;;;17.30;78.34;101108.47;86531;1285;86468;-62
2022/10/06 08:22:37;;;;;;;6.70;4.50;;;;;;;17.52;77.72;101104.27;86549;1289;95583;-61
2022/10/06 08:24:46;;;;;;;6.00;4.80;;;;;;;17.97;76.75;101104.84;86568;1285;81238;-62
2022/10/06 08:26:55;;;;;;;7.70;4.50;;;;;;;18.22;76.09;101110.04;86554;1285;80890;-60
2022/10/06 08:29:04;;;;;;;6.90;4.80;;;;;;;18.46;75.85;101102.33;86573;1283;99509;-54
2022/10/06 08:31:14;;;;;;;7.00;4.80;;;;;;;18.78;75.93;101103.27;86585;1284;88515;-60
2022/10/06 08:33:23;;;;;;;9.00;5.50;;;;;;;19.28;74.53;101104.44;86594;1291;92854;-61
2022/10/06 08:35:36;;;;;;;5.20;4.30;;;;;;;19.49;73.69;101101.14;86586;1285;79396;-67
2022/10/06 08:37:47;;;;;;;7.10;4.40;;;;;;;19.58;73.40;101105.86;86612;1282;82549;-60
2022/10/06 08:39:57;;;;;;;8.30;4.50;;;;;;;19.68;72.67;101104.67;86576;1291;98871;-59
2022/10/06 08:42:18;;;;;;;5.10;4.30;;;;;;;19.71;72.46;101103.43;86574;1285;86984;-59
2022/10/06 08:44:35;;;;;;;7.20;4.40;;;;;;;19.73;72.67;101110.67;86609;1288;94290;-63
2022/10/06 08:46:53;;;;;;;5.30;4.50;;;;;;;19.95;72.96;101114.41;86563;1292;78574;-63
2022/10/06 08:49:05;;;;;;;5.50;3.90;;;;;;;20.41;72.77;101122.24;86568;1283;82668;-63
2022/10/06 08:51:30;;;;;;;11.30;4.30;;;;;;;20.76;71.95;101125.00;86568;1288;100073;-62
2022/10/06 08:53:47;;;;;;;7.70;4.80;;;;;;;21.08;71.06;101123.35;86561;1283;88136;-59
2022/10/06 08:56:09;;;;;;;6.40;4.00;;;;;;;21.38;70.43;101130.69;86547;1285;95328;-59
2022/10/06 08:58:40;;;;;;;7.00;4.30;;;;;;;21.51;70.82;101136.85;86547;1291;80223;-61
2022/10/06 09:00:55;;;;;;;8.80;4.20;;;;;;;21.94;69.87;101143.08;86573;1285;83027;-60
2022/10/06 09:03:06;;;;;;;4.40;3.80;;;;;;;22.14;69.29;101144.02;86473;1285;97754;-61
2022/10/06 09:05:24;;;;;;;4.80;3.60;;;;;;;22.23;68.97;101145.63;86572;1282;89054;-61
2022/10/06 09:07:44;;;;;;;9.60;3.90;;;;;;;22.41;68.88;101150.61;86528;1291;95566;-60
2022/10/06 09:10:15;;;;;;;6.30;3.50;;;;;;;22.37;67.76;101154.88;86549;1288;79328;-55
2022/10/06 09:12:31;;;;;;;4.90;3.80;;;;;;;22.24;67.97;101162.25;86569;1285;82590;-59
2022/10/06 09:14:47;;;;;;;6.70;3.40;;;;;;;22.05;67.83;101164.01;86575;1291;99827;-63
2022/10/06 09:17:03;;;;;;;6.00;3.30;;;;;;;21.92;67.64;101166.10;86566;1291;87690;-63
2022/10/06 09:19:20;;;;;;;6.10;4.30;;;;;;;21.78;67.65;101169.20;86566;1292;95345;-60
2022/10/06 09:21:36;;;;;;;4.50;3.60;;;;;;;21.74;67.44;101170.12;86581;1285;80470;-59
2022/10/06 09:23:55;;;;;;;4.40;3.40;;;;;;;21.85;67.60;101166.98;86596;1288;82383;-63
2022/10/06 09:26:06;;;;;;;6.80;3.70;;;;;;;22.06;67.21;101171.61;86583;1285;98220;-61
2022/10/06 09:28:17;;;;;;;5.00;3.40;;;;;;;22.33;67.40;101167.55;86553;1282;88564;-60
2022/10/06 09:30:28;;;;;;;6.50;3.40;;;;;;;22.63;67.02;101171.61;86561;1288;94930;-59
2022/10/06 09:32:40;;;;;;;4.50;3.20;;;;;;;22.84;65.70;101175.01;86551;1285;80473;-58
2022/10/06 09:34:54;;;;;;;5.90;3.60;;;;;;;23.23;66.17;101170.02;86550;1288;82670;-55
2022/10/06 09:37:07;;;;;;;5.60;3.20;;;;;;;23.45;65.84;101172.36;86545;1288;99643;-59
2022/10/06 09:39:25;;;;;;;;;;;;;;;23.63;65.60;101170.45;86585;1285;89059;-62
2022/10/06 09:41:40;;;;;;;4.90;3.00;;;;;;;23.70;65.70;101175.79;86527;1289;95259;-62
2022/10/06 09:43:59;;;;;;;4.90;3.10;;;;;;;23.78;64.67;101176.82;86548;1285;80688;-63
2022/10/06 09:48:42;;;;;;;5.30;2.80;;;;;;;23.54;63.89;101185.61;83222;1339;600647;-60
2022/10/06 09:51:13;;;;;;;7.00;3.10;;;;;;;23.43;63.69;101193.89;85503;1306;80829;-60
2022/10/06 09:53:25;;;;;;;5.00;3.00;;;;;;;23.06;63.38;101198.29;85572;1306;82866;-61
2022/10/06 09:55:44;;;;;;;3.70;2.90;;;;;;;22.67;63.33;101200.50;85510;1301;95260;-60
2022/10/06 09:57:56;;;;;;;5.30;3.00;;;;;;;22.45;63.20;101200.81;85543;1308;85865;-60
2022/10/06 10:00:26;;;;;;;4.80;2.90;;;;;;;22.22;62.82;101200.42;85679;1300;95851;-59
2022/10/06 10:02:37;;;;;;;5.90;3.00;;;;;;;21.67;63.38;101202.91;85451;1304;404888;-59
2022/10/06 10:04:46;;;;;;;5.10;2.80;;;;;;;21.65;63.98;101201.44;85781;1297;82873;-58
2022/10/06 10:07:12;;;;;;;6.50;3.30;;;;;;;21.63;64.23;101208.72;85814;1301;96024;-59
2022/10/06 10:09:29;;;;;;;3.90;2.90;;;;;;;21.64;64.18;101208.12;85767;1298;87449;-59
2022/10/06 10:14:15;;;;;;;4.80;2.90;;;;;;;21.63;64.39;101208.95;85808;1304;79307;-60
2022/10/06 10:16:27;;;;;;;6.40;4.00;;;;;;;21.70;64.35;101209.64;85761;1304;81489;-59
2022/10/06 10:18:38;;;;;;;3.10;2.50;;;;;;;21.69;64.53;101205.88;85794;1303;96407;-60
2022/10/06 10:20:57;;;;;;;3.80;2.70;;;;;;;21.72;64.68;101207.48;85820;1303;88766;-61
2022/10/06 10:23:23;;;;;;;5.20;3.10;;;;;;;21.65;64.74;101214.31;85793;1303;94339;-62
2022/10/06 10:25:57;;;;;;;5.20;3.10;;;;;;;21.60;64.68;101217.55;85837;1300;80154;-61
2022/10/06 10:28:21;;;;;;;8.30;3.20;;;;;;;21.53;65.02;101221.88;85811;1300;83469;-60